Time;durP1;ratioP1;P1;durP2;ratioP2;P2;SDS_P1;SDS_P2;PMS_P1;PMS_P2;Temp;Humidity;BMP_temperature;BMP_pressure;BME280_temperature;BME280_humidity;BME280_pressure;Samples;Min_cycle;Max_cycle;Signal;HPM_P1;HPM_P2
2024/03/15 00:00:13;;;;;;;3.88;2.55;;;14.80;97.60;;;;;;2075271;28;20115;-65
2024/03/15 00:01:13;;;;;;;4.53;2.75;;;14.80;97.30;;;;;;2075400;28;20032;-64
2024/03/15 00:02:15;;;;;;;4.10;3.05;;;14.80;97.40;;;;;;2075876;28;20032;-64
2024/03/15 00:03:15;;;;;;;3.88;2.90;;;14.80;97.40;;;;;;2076740;28;21257;-66
2024/03/15 00:04:16;;;;;;;3.58;2.63;;;14.80;97.40;;;;;;2074912;28;20097;-64
2024/03/15 00:05:21;;;;;;;3.42;2.45;;;14.80;97.40;;;;;;2076654;28;20033;-64
2024/03/15 00:06:21;;;;;;;4.82;3.05;;;14.80;97.50;;;;;;2074005;28;20025;-67
2024/03/15 00:07:22;;;;;;;3.20;2.70;;;14.80;97.40;;;;;;2076654;28;20025;-67
2024/03/15 00:08:23;;;;;;;2.80;2.50;;;14.80;97.50;;;;;;2080425;28;20097;-65
2024/03/15 00:09:23;;;;;;;4.30;2.78;;;14.80;97.50;;;;;;2076647;28;20028;-66
2024/03/15 00:10:24;;;;;;;2.80;2.60;;;14.80;97.60;;;;;;2076384;28;20072;-67
2024/03/15 00:11:25;;;;;;;3.47;2.60;;;14.70;97.50;;;;;;2078073;28;20397;-68
2024/03/15 00:12:25;;;;;;;7.22;2.92;;;14.80;97.60;;;;;;2077268;28;20394;-66
2024/03/15 00:13:26;;;;;;;3.33;2.40;;;14.80;97.70;;;;;;2077700;28;20114;-67
2024/03/15 00:14:27;;;;;;;3.47;2.88;;;14.70;97.70;;;;;;2075488;28;20496;-64
2024/03/15 00:15:27;;;;;;;5.30;2.70;;;14.70;97.70;;;;;;2077299;28;20044;-64
2024/03/15 00:16:28;;;;;;;4.18;3.05;;;14.70;97.80;;;;;;2077354;28;20025;-67
2024/03/15 00:17:29;;;;;;;3.95;2.78;;;14.70;97.80;;;;;;2075493;28;20101;-65
2024/03/15 00:18:33;;;;;;;3.35;2.67;;;14.70;97.80;;;;;;2075237;28;20029;-65
2024/03/15 00:19:34;;;;;;;3.30;2.92;;;14.70;97.90;;;;;;2077029;28;20125;-67
2024/03/15 00:20:35;;;;;;;5.45;2.35;;;14.70;97.90;;;;;;2073799;28;20032;-66
2024/03/15 00:21:39;;;;;;;5.32;2.70;;;14.70;97.90;;;;;;2079329;28;20025;-65
2024/03/15 00:22:39;;;;;;;11.15;2.92;;;14.70;98.00;;;;;;2076183;28;20050;-65
2024/03/15 00:23:42;;;;;;;5.32;2.60;;;14.70;98.10;;;;;;2075916;28;20025;-64
2024/03/15 00:24:45;;;;;;;4.28;3.38;;;14.70;98.10;;;;;;2076171;28;20028;-64
2024/03/15 00:25:46;;;;;;;4.90;2.60;;;14.70;98.10;;;;;;2074856;28;20277;-65
2024/03/15 00:26:46;;;;;;;2.70;2.45;;;14.70;98.10;;;;;;2076348;28;20033;-64
2024/03/15 00:27:47;;;;;;;3.10;2.55;;;14.60;98.20;;;;;;2078322;28;20022;-64
2024/03/15 00:28:47;;;;;;;3.83;2.78;;;14.70;98.30;;;;;;2076092;28;20120;-67
2024/03/15 00:29:49;;;;;;;5.80;2.80;;;14.60;98.30;;;;;;2078127;28;20555;-65
2024/03/15 00:30:50;;;;;;;3.17;2.85;;;14.60;98.30;;;;;;2075999;28;20094;-65
2024/03/15 00:31:51;;;;;;;3.50;2.88;;;14.60;98.40;;;;;;2077767;28;20022;-71
2024/03/15 00:32:52;;;;;;;4.32;2.60;;;14.70;98.40;;;;;;2075371;28;20026;-73
2024/03/15 00:33:52;;;;;;;4.13;3.00;;;14.70;98.50;;;;;;2077863;28;20433;-71
2024/03/15 00:34:53;;;;;;;4.20;2.95;;;14.60;98.50;;;;;;2077919;28;20029;-73
2024/03/15 00:36:16;;;;;;;3.28;2.95;;;14.60;98.60;;;;;;2079976;28;20029;-72
2024/03/15 00:37:17;;;;;;;4.20;2.97;;;14.60;98.60;;;;;;2075671;28;20474;-70
2024/03/15 00:38:21;;;;;;;3.70;2.95;;;14.60;98.70;;;;;;2077315;28;20148;-71
2024/03/15 00:39:21;;;;;;;3.05;2.75;;;14.60;98.90;;;;;;2078501;28;20092;-72
2024/03/15 00:40:22;;;;;;;5.88;2.83;;;14.60;98.90;;;;;;2076788;28;20025;-71
2024/03/15 00:41:23;;;;;;;3.55;2.80;;;14.60;99.00;;;;;;2074927;28;20034;-71
2024/03/15 00:42:24;;;;;;;4.72;2.65;;;14.60;99.00;;;;;;2075636;28;20627;-70
2024/03/15 00:43:25;;;;;;;4.53;2.95;;;14.60;99.00;;;;;;2075758;28;20037;-72
2024/03/15 00:44:25;;;;;;;4.07;3.05;;;14.60;99.10;;;;;;2073931;28;20029;-69
2024/03/15 00:45:26;;;;;;;4.95;3.13;;;14.60;99.10;;;;;;2079046;28;20067;-70
2024/03/15 00:46:27;;;;;;;4.25;2.58;;;14.60;99.20;;;;;;2074715;28;20115;-71
2024/03/15 00:47:28;;;;;;;4.63;2.90;;;14.60;99.20;;;;;;2076343;28;20026;-71
2024/03/15 00:48:29;;;;;;;3.88;2.88;;;14.60;99.40;;;;;;2077041;28;20018;-72
2024/03/15 00:49:29;;;;;;;3.35;2.85;;;14.60;99.40;;;;;;2077089;28;20029;-70
2024/03/15 00:50:30;;;;;;;3.75;3.00;;;14.60;99.40;;;;;;2075040;28;20402;-71
2024/03/15 00:51:31;;;;;;;5.00;2.97;;;14.60;99.50;;;;;;2079919;28;20025;-72
2024/03/15 00:52:31;;;;;;;3.72;2.90;;;14.60;99.60;;;;;;2075995;28;20034;-72
2024/03/15 00:53:32;;;;;;;6.47;3.28;;;14.60;99.70;;;;;;2077476;28;20087;-73
2024/03/15 00:54:34;;;;;;;3.55;3.00;;;14.60;99.70;;;;;;2077112;28;20438;-70
2024/03/15 00:55:35;;;;;;;5.82;2.63;;;14.60;99.70;;;;;;2076464;28;20049;-73
2024/03/15 00:56:36;;;;;;;5.95;3.30;;;14.60;99.70;;;;;;2078957;28;20229;-70
2024/03/15 00:57:36;;;;;;;4.05;3.55;;;14.60;99.80;;;;;;2076871;28;20108;-71
2024/03/15 00:58:37;;;;;;;6.47;3.55;;;14.60;99.80;;;;;;2077906;28;20022;-71
2024/03/15 00:59:38;;;;;;;6.50;3.60;;;14.60;99.80;;;;;;2075478;28;20463;-72
2024/03/15 01:00:39;;;;;;;4.82;3.47;;;14.60;99.80;;;;;;2075851;28;20083;-71
2024/03/15 01:01:42;;;;;;;3.55;3.13;;;14.60;99.80;;;;;;2078424;28;20481;-72
2024/03/15 01:02:45;;;;;;;4.82;3.10;;;14.60;99.90;;;;;;2076091;28;20028;-73
2024/03/15 01:03:46;;;;;;;3.65;3.20;;;14.70;99.90;;;;;;2070428;28;20105;-71
2024/03/15 01:04:47;;;;;;;6.38;3.03;;;14.60;99.90;;;;;;2067649;28;20142;-73
2024/03/15 01:05:51;;;;;;;4.20;2.65;;;14.60;99.90;;;;;;2077924;28;20502;-70
2024/03/15 01:06:51;;;;;;;5.32;3.08;;;14.60;99.90;;;;;;2076029;28;20030;-71
2024/03/15 01:07:52;;;;;;;6.03;2.88;;;14.60;99.90;;;;;;2077781;28;20037;-72
2024/03/15 01:08:53;;;;;;;3.42;2.83;;;14.60;99.90;;;;;;2074083;28;20026;-72
2024/03/15 01:09:53;;;;;;;4.80;2.88;;;14.60;99.90;;;;;;2076606;28;20068;-71
2024/03/15 01:10:54;;;;;;;6.35;3.35;;;14.60;99.90;;;;;;2077342;28;20025;-71
2024/03/15 01:11:54;;;;;;;3.95;3.33;;;14.60;99.90;;;;;;2075077;28;20102;-73
2024/03/15 01:12:55;;;;;;;4.82;3.05;;;14.60;99.90;;;;;;2073169;28;20049;-71
2024/03/15 01:13:57;;;;;;;4.30;3.33;;;14.60;99.90;;;;;;2076177;28;20108;-71
2024/03/15 01:14:57;;;;;;;3.15;2.63;;;14.60;99.90;;;;;;2076065;28;20068;-72
2024/03/15 01:15:58;;;;;;;5.20;2.63;;;14.60;99.90;;;;;;2078087;28;20033;-72
2024/03/15 01:16:59;;;;;;;3.63;2.47;;;14.60;99.90;;;;;;2075101;28;20095;-72
2024/03/15 01:18:03;;;;;;;4.80;2.75;;;14.60;99.90;;;;;;2077578;28;20037;-72
2024/03/15 01:19:04;;;;;;;6.35;3.08;;;14.60;99.90;;;;;;2077107;28;20443;-70
2024/03/15 01:20:05;;;;;;;3.47;2.55;;;14.60;99.90;;;;;;2068247;28;20034;-71
2024/03/15 01:21:06;;;;;;;4.15;2.83;;;14.60;99.90;;;;;;2070746;28;20034;-72
2024/03/15 01:22:07;;;;;;;3.50;3.03;;;14.60;99.90;;;;;;2076159;28;20029;-72
2024/03/15 01:23:08;;;;;;;3.50;2.78;;;14.60;99.90;;;;;;2067517;28;20054;-72
2024/03/15 01:24:12;;;;;;;3.40;2.53;;;14.60;99.90;;;;;;2068212;28;20073;-72
2024/03/15 01:25:13;;;;;;;4.93;2.95;;;14.60;99.90;;;;;;2077101;28;20021;-72
2024/03/15 01:26:14;;;;;;;3.13;2.70;;;14.60;99.90;;;;;;2077749;28;20099;-71
2024/03/15 01:27:14;;;;;;;3.20;2.60;;;14.60;99.90;;;;;;2075875;28;20100;-72
2024/03/15 01:28:16;;;;;;;4.88;2.83;;;14.60;99.90;;;;;;2077774;28;20049;-72
2024/03/15 01:29:16;;;;;;;4.30;2.70;;;14.60;99.90;;;;;;2078100;28;20051;-72
2024/03/15 01:30:17;;;;;;;3.10;2.70;;;14.60;99.90;;;;;;2075503;28;20026;-72
2024/03/15 01:31:18;;;;;;;3.97;2.90;;;14.60;99.90;;;;;;2074747;28;20586;-71
2024/03/15 01:32:19;;;;;;;5.13;3.17;;;14.50;99.90;;;;;;2077114;28;20026;-71
2024/03/15 01:33:20;;;;;;;4.13;2.88;;;14.60;99.90;;;;;;2078380;28;20018;-71
2024/03/15 01:34:21;;;;;;;4.82;2.65;;;14.60;99.90;;;;;;2077339;28;20500;-70
2024/03/15 01:35:34;;;;;;;3.05;2.80;;;14.60;99.90;;;;;;2076128;28;20025;-72
2024/03/15 01:36:35;;;;;;;5.18;2.92;;;14.60;99.90;;;;;;2076596;28;20056;-72
2024/03/15 01:37:36;;;;;;;4.20;3.15;;;14.60;99.90;;;;;;2075603;28;20109;-72
2024/03/15 01:38:36;;;;;;;3.63;2.25;;;14.60;99.90;;;;;;2079163;28;20021;-72
2024/03/15 01:39:38;;;;;;;3.00;2.70;;;14.60;99.90;;;;;;2075699;28;20029;-73
2024/03/15 01:40:38;;;;;;;4.80;3.00;;;14.60;99.90;;;;;;2074959;28;20029;-72
2024/03/15 01:41:39;;;;;;;4.93;2.72;;;14.60;99.90;;;;;;2073876;28;20025;-70
2024/03/15 01:42:41;;;;;;;4.80;2.72;;;14.60;99.90;;;;;;2078543;28;20076;-72
2024/03/15 01:43:48;;;;;;;6.35;2.65;;;14.60;99.90;;;;;;2074797;28;20552;-72
2024/03/15 01:44:52;;;;;;;5.82;2.92;;;14.60;99.90;;;;;;2075485;28;20025;-71
2024/03/15 01:45:52;;;;;;;3.63;2.95;;;14.60;99.90;;;;;;2075562;28;20044;-72
2024/03/15 01:46:56;;;;;;;5.60;2.72;;;14.60;99.90;;;;;;2072157;28;20026;-69
2024/03/15 01:47:57;;;;;;;9.05;2.78;;;14.60;99.90;;;;;;2076110;28;20030;-72
2024/03/15 01:48:59;;;;;;;5.25;2.88;;;14.60;99.90;;;;;;2074757;28;20055;-71
2024/03/15 01:50:02;;;;;;;7.70;3.03;;;14.60;99.90;;;;;;2077797;28;20053;-71
2024/03/15 01:51:06;;;;;;;3.45;2.85;;;14.60;99.90;;;;;;2079268;28;20021;-72
2024/03/15 01:52:08;;;;;;;5.03;2.92;;;14.60;99.90;;;;;;2076716;28;20022;-71
2024/03/15 01:53:10;;;;;;;2.55;2.28;;;14.60;99.90;;;;;;2077421;28;20028;-72
2024/03/15 01:54:11;;;;;;;5.10;2.90;;;14.60;99.90;;;;;;2077379;28;20112;-71
2024/03/15 01:55:12;;;;;;;4.72;2.90;;;14.60;99.90;;;;;;2077843;28;20381;-72
2024/03/15 01:56:12;;;;;;;4.18;2.63;;;14.60;99.90;;;;;;2079622;28;20030;-71
2024/03/15 01:57:17;;;;;;;4.47;2.50;;;14.70;99.90;;;;;;2078027;28;20389;-69
2024/03/15 01:58:18;;;;;;;3.30;2.35;;;14.60;99.90;;;;;;2075784;28;20394;-71
2024/03/15 01:59:19;;;;;;;3.22;2.17;;;14.60;99.90;;;;;;2080807;28;20026;-71
2024/03/15 02:00:22;;;;;;;4.65;2.80;;;14.60;99.90;;;;;;2075401;28;20017;-71
2024/03/15 02:01:23;;;;;;;2.75;2.33;;;14.70;99.90;;;;;;2076520;28;20033;-71
2024/03/15 02:02:26;;;;;;;5.78;3.15;;;14.60;99.90;;;;;;2079432;28;20108;-71
2024/03/15 02:03:29;;;;;;;3.85;2.55;;;14.70;99.90;;;;;;2078399;28;20367;-73
2024/03/15 02:04:30;;;;;;;4.88;2.60;;;14.70;99.90;;;;;;2076288;28;20041;-71
2024/03/15 02:05:32;;;;;;;5.00;2.60;;;14.70;99.90;;;;;;2079403;28;20033;-72
2024/03/15 02:06:34;;;;;;;2.83;2.60;;;14.60;99.90;;;;;;2077686;28;20048;-72
2024/03/15 02:07:35;;;;;;;6.72;2.85;;;14.60;99.90;;;;;;2078608;28;20018;-71
2024/03/15 02:08:36;;;;;;;4.32;2.83;;;14.60;99.90;;;;;;2070747;28;20033;-71
2024/03/15 02:09:38;;;;;;;5.13;2.58;;;14.60;99.90;;;;;;2069499;28;20024;-72
2024/03/15 02:10:38;;;;;;;4.30;2.80;;;14.60;99.90;;;;;;2076631;28;20833;-72
2024/03/15 02:11:39;;;;;;;4.68;2.50;;;14.60;99.90;;;;;;2076373;28;20434;-72
2024/03/15 02:12:40;;;;;;;3.90;3.00;;;14.60;99.90;;;;;;2077872;28;20245;-70
2024/03/15 02:13:41;;;;;;;3.25;2.95;;;14.60;99.90;;;;;;2076875;28;20298;-71
2024/03/15 02:14:41;;;;;;;3.70;2.63;;;14.60;99.90;;;;;;2079089;28;20045;-72
2024/03/15 02:15:42;;;;;;;5.25;3.03;;;14.60;99.90;;;;;;2078573;28;20537;-71
2024/03/15 02:16:43;;;;;;;4.28;2.78;;;14.60;99.90;;;;;;2079991;28;20330;-70
2024/03/15 02:17:43;;;;;;;4.20;2.63;;;14.60;99.90;;;;;;2078127;28;20351;-71
2024/03/15 02:18:44;;;;;;;3.20;2.38;;;14.60;99.90;;;;;;2079131;28;20140;-70
2024/03/15 02:19:45;;;;;;;6.13;2.55;;;14.60;99.90;;;;;;2075959;28;20110;-71
2024/03/15 02:20:46;;;;;;;5.57;2.90;;;14.60;99.90;;;;;;2071893;28;20478;-71
2024/03/15 02:21:49;;;;;;;4.00;2.55;;;14.60;99.90;;;;;;2070734;28;20034;-69
2024/03/15 02:22:53;;;;;;;4.13;2.75;;;14.60;99.90;;;;;;2075652;28;20049;-72
2024/03/15 02:24:00;;;;;;;4.88;2.58;;;14.60;99.90;;;;;;2077077;28;20032;-71
2024/03/15 02:25:01;;;;;;;4.45;2.67;;;14.60;99.90;;;;;;2077811;28;20062;-71
2024/03/15 02:26:02;;;;;;;4.40;2.47;;;14.50;99.90;;;;;;2076737;28;20038;-71
2024/03/15 02:27:03;;;;;;;5.00;2.30;;;14.60;99.90;;;;;;2074870;28;20029;-71
2024/03/15 02:28:07;;;;;;;3.67;2.15;;;14.60;99.90;;;;;;2076766;28;20029;-71
2024/03/15 02:29:12;;;;;;;4.80;2.75;;;14.50;99.90;;;;;;2079378;28;20076;-71
2024/03/15 02:30:16;;;;;;;3.58;2.65;;;14.50;99.90;;;;;;2076301;28;20029;-72
2024/03/15 02:31:17;;;;;;;4.30;2.63;;;14.50;99.90;;;;;;2077814;28;20352;-71
2024/03/15 02:32:18;;;;;;;4.93;2.50;;;14.50;99.90;;;;;;2078409;28;20398;-65
2024/03/15 02:33:21;;;;;;;3.28;2.35;;;14.50;99.90;;;;;;2080252;28;20378;-66
2024/03/15 02:34:21;;;;;;;5.03;2.70;;;14.50;99.90;;;;;;2078598;28;20061;-65
2024/03/15 02:35:22;;;;;;;6.82;2.95;;;14.50;99.90;;;;;;2076834;28;20026;-64
2024/03/15 02:36:23;;;;;;;3.40;2.53;;;14.50;99.90;;;;;;2079144;28;20025;-65
2024/03/15 02:37:24;;;;;;;3.85;2.38;;;14.50;99.90;;;;;;2077169;28;20049;-64
2024/03/15 02:38:26;;;;;;;3.30;2.47;;;14.50;99.90;;;;;;2069340;28;20030;-65
2024/03/15 02:39:27;;;;;;;5.60;2.00;;;14.60;99.90;;;;;;2070679;28;20113;-64
2024/03/15 02:40:28;;;;;;;3.58;2.70;;;14.50;99.90;;;;;;2077120;28;20042;-64
2024/03/15 02:41:28;;;;;;;3.40;2.35;;;14.50;99.90;;;;;;2076596;28;20533;-65
2024/03/15 02:42:29;;;;;;;3.95;2.60;;;14.50;99.90;;;;;;2077976;28;20053;-65
2024/03/15 02:43:32;;;;;;;5.68;2.80;;;14.50;99.90;;;;;;2078768;28;20053;-65
2024/03/15 02:44:33;;;;;;;3.72;2.60;;;14.50;99.90;;;;;;2077180;28;20061;-64
2024/03/15 02:45:34;;;;;;;4.72;2.63;;;14.50;99.90;;;;;;2075414;28;20037;-66
2024/03/15 02:46:35;;;;;;;4.45;2.80;;;14.50;99.90;;;;;;2079906;28;20477;-65
2024/03/15 02:47:38;;;;;;;6.10;2.40;;;14.50;99.90;;;;;;2078542;28;20077;-66
2024/03/15 02:48:39;;;;;;;5.13;2.55;;;14.50;99.90;;;;;;2078930;28;20030;-66
2024/03/15 02:49:39;;;;;;;5.15;2.40;;;14.50;99.90;;;;;;2079156;28;20029;-64
2024/03/15 02:50:40;;;;;;;4.13;2.30;;;14.50;99.90;;;;;;2077536;28;20030;-64
2024/03/15 02:51:44;;;;;;;3.90;2.53;;;14.50;99.90;;;;;;2075368;28;20037;-64
2024/03/15 02:52:47;;;;;;;4.55;3.10;;;14.50;99.90;;;;;;2076858;28;20034;-65
2024/03/15 02:53:48;;;;;;;4.50;2.50;;;14.50;99.90;;;;;;2076460;28;20032;-64
2024/03/15 02:54:49;;;;;;;4.43;2.63;;;14.50;99.90;;;;;;2077496;28;20066;-65
2024/03/15 02:55:49;;;;;;;4.38;2.60;;;14.50;99.90;;;;;;2076906;28;20033;-65
2024/03/15 02:56:50;;;;;;;3.15;2.50;;;14.50;99.90;;;;;;2078866;28;20419;-66
2024/03/15 02:57:51;;;;;;;3.72;2.53;;;14.50;99.90;;;;;;2076810;28;20026;-65
2024/03/15 02:58:51;;;;;;;4.15;2.35;;;14.50;99.90;;;;;;2076189;28;20033;-66
2024/03/15 02:59:52;;;;;;;4.13;2.60;;;14.50;99.90;;;;;;2077007;28;20028;-66
2024/03/15 03:00:53;;;;;;;4.50;2.90;;;14.50;99.90;;;;;;2075537;28;20049;-64
2024/03/15 03:01:53;;;;;;;3.33;2.78;;;14.50;99.90;;;;;;2068347;28;20526;-64
2024/03/15 03:02:54;;;;;;;4.53;2.53;;;14.50;99.90;;;;;;2067770;28;20094;-64
2024/03/15 03:03:56;;;;;;;3.85;2.70;;;14.50;99.90;;;;;;2077891;28;20024;-65
2024/03/15 03:04:56;;;;;;;5.63;2.67;;;14.50;99.90;;;;;;2078582;28;20022;-64
2024/03/15 03:05:57;;;;;;;4.10;2.58;;;14.50;99.90;;;;;;2075491;28;20033;-65
2024/03/15 03:06:58;;;;;;;6.15;2.75;;;14.40;99.90;;;;;;2078025;28;20084;-65
2024/03/15 03:07:59;;;;;;;5.57;2.35;;;14.40;99.90;;;;;;2076185;28;20022;-64
2024/03/15 03:08:59;;;;;;;4.93;2.50;;;14.40;99.90;;;;;;2078631;28;20398;-64
2024/03/15 03:10:00;;;;;;;5.38;2.28;;;14.40;99.90;;;;;;2077673;28;20083;-65
2024/03/15 03:11:00;;;;;;;3.10;2.75;;;14.50;99.90;;;;;;2079363;28;20104;-65
2024/03/15 03:12:01;;;;;;;4.35;2.30;;;14.40;99.90;;;;;;2076895;28;20679;-65
2024/03/15 03:13:02;;;;;;;5.13;2.47;;;14.50;99.90;;;;;;2077359;28;20041;-65
2024/03/15 03:14:04;;;;;;;3.88;2.60;;;14.50;99.90;;;;;;2077379;28;20021;-65
2024/03/15 03:15:06;;;;;;;4.28;2.67;;;14.40;99.90;;;;;;2076654;28;20064;-64
2024/03/15 03:16:06;;;;;;;3.33;2.13;;;14.40;99.90;;;;;;2077525;28;20069;-65
2024/03/15 03:17:07;;;;;;;5.40;2.65;;;14.40;99.90;;;;;;2077184;28;20026;-64
2024/03/15 03:18:08;;;;;;;4.20;2.42;;;14.40;99.90;;;;;;2076608;28;20025;-64
2024/03/15 03:19:09;;;;;;;4.28;2.28;;;14.50;99.90;;;;;;2077202;28;20029;-64
2024/03/15 03:20:18;;;;;;;4.65;2.55;;;14.40;99.90;;;;;;2076195;28;20033;-71
2024/03/15 03:21:19;;;;;;;4.90;2.50;;;14.50;99.90;;;;;;2076859;28;20025;-72
2024/03/15 03:22:20;;;;;;;4.50;2.58;;;14.40;99.90;;;;;;2077129;28;20506;-71
2024/03/15 03:23:24;;;;;;;3.72;2.22;;;14.40;99.90;;;;;;2077398;28;20056;-71
2024/03/15 03:24:24;;;;;;;6.30;2.47;;;14.50;99.90;;;;;;2074730;28;20038;-70
2024/03/15 03:25:26;;;;;;;4.63;2.70;;;14.50;99.90;;;;;;2078286;28;20097;-70
2024/03/15 03:26:27;;;;;;;5.47;2.80;;;14.50;99.90;;;;;;2079996;28;20021;-70
2024/03/15 03:27:27;;;;;;;3.38;2.50;;;14.50;99.90;;;;;;2077643;28;20097;-71
2024/03/15 03:28:28;;;;;;;3.97;2.22;;;14.50;99.90;;;;;;2076473;28;20021;-71
2024/03/15 03:29:28;;;;;;;4.72;2.70;;;14.50;99.90;;;;;;2078500;28;20018;-70
2024/03/15 03:30:29;;;;;;;2.95;2.53;;;14.50;99.90;;;;;;2078641;28;20363;-71
2024/03/15 03:31:29;;;;;;;5.00;2.72;;;14.50;99.90;;;;;;2077356;28;20025;-72
2024/03/15 03:32:30;;;;;;;4.90;2.53;;;14.40;99.90;;;;;;2079523;28;20071;-70
2024/03/15 03:33:31;;;;;;;5.35;2.72;;;14.40;99.90;;;;;;2078243;28;20117;-73
2024/03/15 03:34:31;;;;;;;6.78;2.50;;;14.50;99.90;;;;;;2078690;28;20036;-71
2024/03/15 03:35:32;;;;;;;3.70;2.55;;;14.50;99.90;;;;;;2077487;28;20033;-71
2024/03/15 03:36:36;;;;;;;3.97;2.75;;;14.40;99.90;;;;;;2076022;28;20026;-73
2024/03/15 03:37:37;;;;;;;3.33;2.28;;;14.40;99.90;;;;;;2068245;28;20117;-71
2024/03/15 03:38:39;;;;;;;3.88;2.80;;;14.40;99.90;;;;;;2070622;28;20509;-70
2024/03/15 03:39:40;;;;;;;5.60;2.67;;;14.50;99.90;;;;;;2075891;28;20031;-71
2024/03/15 03:40:41;;;;;;;6.07;2.78;;;14.40;99.90;;;;;;2075891;28;20030;-70
2024/03/15 03:41:41;;;;;;;4.28;2.30;;;14.40;99.90;;;;;;2076067;28;20060;-70
2024/03/15 03:42:46;;;;;;;3.75;2.40;;;14.40;99.90;;;;;;2075737;28;20040;-73
2024/03/15 03:43:47;;;;;;;4.82;2.80;;;14.40;99.90;;;;;;2076596;28;20120;-71
2024/03/15 03:44:48;;;;;;;5.00;2.53;;;14.40;99.90;;;;;;2077793;28;20038;-71
2024/03/15 03:45:50;;;;;;;5.10;2.42;;;14.40;99.90;;;;;;2075611;28;20022;-70
2024/03/15 03:46:51;;;;;;;3.40;2.20;;;14.40;99.90;;;;;;2068987;28;20030;-69
2024/03/15 03:47:52;;;;;;;4.30;2.45;;;14.40;99.90;;;;;;2075332;28;20041;-71
2024/03/15 03:48:52;;;;;;;4.63;2.40;;;14.40;99.90;;;;;;2077488;28;20090;-71
2024/03/15 03:49:53;;;;;;;5.18;2.42;;;14.40;99.90;;;;;;2075733;28;20063;-72
2024/03/15 03:50:53;;;;;;;4.18;2.85;;;14.40;99.90;;;;;;2076045;28;20117;-69
2024/03/15 03:51:54;;;;;;;4.22;2.58;;;14.40;99.90;;;;;;2076191;28;20028;-71
2024/03/15 03:52:55;;;;;;;4.25;3.08;;;14.40;99.90;;;;;;2073896;28;20044;-70
2024/03/15 03:53:56;;;;;;;5.97;2.50;;;14.40;99.90;;;;;;2075927;28;20103;-71
2024/03/15 03:54:56;;;;;;;3.20;2.45;;;14.40;99.90;;;;;;2076215;28;20032;-71
2024/03/15 03:55:57;;;;;;;7.50;2.50;;;14.40;99.90;;;;;;2077639;28;20024;-72
2024/03/15 03:56:58;;;;;;;4.40;2.40;;;14.40;99.90;;;;;;2075863;28;20056;-70
2024/03/15 03:57:58;;;;;;;5.18;2.60;;;14.40;99.90;;;;;;2077900;28;20431;-68
2024/03/15 03:58:59;;;;;;;3.97;2.80;;;14.40;99.90;;;;;;2076601;28;20034;-71
2024/03/15 04:00:07;;;;;;;7.65;2.58;;;14.40;99.90;;;;;;2075732;28;20029;-69
2024/03/15 04:01:07;;;;;;;4.30;2.83;;;14.40;99.90;;;;;;2077882;28;20033;-70
2024/03/15 04:02:08;;;;;;;2.92;2.20;;;14.40;99.90;;;;;;2078800;28;20577;-72
2024/03/15 04:03:11;;;;;;;2.67;2.45;;;14.40;99.90;;;;;;2076620;28;20113;-71
2024/03/15 04:04:12;;;;;;;7.50;2.60;;;14.40;99.90;;;;;;2074776;28;20402;-71
2024/03/15 04:05:15;;;;;;;2.80;2.35;;;14.40;99.90;;;;;;2076900;28;20052;-72
2024/03/15 04:06:15;;;;;;;3.78;2.30;;;14.40;99.90;;;;;;2076984;28;20040;-70
2024/03/15 04:07:19;;;;;;;5.00;2.60;;;14.40;99.90;;;;;;2074239;28;20057;-72
2024/03/15 04:08:19;;;;;;;4.47;2.30;;;14.50;99.90;;;;;;2076190;28;20014;-73
2024/03/15 04:09:21;;;;;;;6.72;2.40;;;14.40;99.90;;;;;;2074787;28;20034;-71
2024/03/15 04:10:22;;;;;;;3.03;2.30;;;14.40;99.90;;;;;;2076396;28;20556;-72
2024/03/15 04:11:23;;;;;;;3.83;2.42;;;14.40;99.90;;;;;;2074397;28;20036;-73
2024/03/15 04:12:26;;;;;;;6.53;2.35;;;14.40;99.90;;;;;;2077279;28;20116;-72
2024/03/15 04:13:27;;;;;;;2.50;2.25;;;14.40;99.90;;;;;;2079029;28;20112;-72
2024/03/15 04:14:33;;;;;;;3.13;2.17;;;14.40;99.90;;;;;;2076379;28;20367;-72
2024/03/15 04:15:35;;;;;;;3.63;2.28;;;14.50;99.90;;;;;;2077339;28;20041;-72
2024/03/15 04:16:36;;;;;;;4.00;2.53;;;14.50;99.90;;;;;;2073775;28;20072;-71
2024/03/15 04:17:42;;;;;;;4.13;2.88;;;14.40;99.90;;;;;;2070308;28;20049;-72
2024/03/15 04:18:42;;;;;;;4.35;2.13;;;14.50;99.90;;;;;;2077708;28;20560;-72
2024/03/15 04:19:43;;;;;;;5.15;2.67;;;14.50;99.90;;;;;;2075645;28;20434;-72
2024/03/15 04:20:46;;;;;;;3.90;2.65;;;14.50;99.90;;;;;;2077341;28;20041;-71
2024/03/15 04:21:48;;;;;;;3.97;2.65;;;14.50;99.90;;;;;;2076512;28;20042;-72
2024/03/15 04:22:48;;;;;;;3.67;2.10;;;14.50;99.90;;;;;;2076675;28;20462;-71
2024/03/15 04:23:55;;;;;;;3.60;2.60;;;14.50;99.90;;;;;;2076834;28;20374;-71
2024/03/15 04:24:56;;;;;;;5.22;2.60;;;14.50;99.90;;;;;;2077383;28;20056;-70
2024/03/15 04:25:56;;;;;;;6.05;2.67;;;14.50;99.90;;;;;;2072756;28;20038;-70
2024/03/15 04:26:57;;;;;;;5.60;3.05;;;14.50;99.90;;;;;;2076068;28;20037;-71
2024/03/15 04:27:58;;;;;;;7.45;2.28;;;14.50;99.90;;;;;;2074494;28;20513;-73
2024/03/15 04:29:01;;;;;;;3.97;2.70;;;14.50;99.90;;;;;;2077204;28;20022;-71
2024/03/15 04:30:14;;;;;;;9.65;2.97;;;14.50;99.90;;;;;;2076812;28;20300;-68
2024/03/15 04:31:16;;;;;;;4.50;2.80;;;14.50;99.90;;;;;;2079224;28;20109;-71
2024/03/15 04:32:19;;;;;;;3.97;2.63;;;14.50;99.90;;;;;;2077304;28;20025;-70
2024/03/15 04:33:20;;;;;;;4.57;2.50;;;14.50;99.90;;;;;;2083676;28;20028;-69
2024/03/15 04:34:21;;;;;;;3.92;2.33;;;14.50;99.90;;;;;;2078988;28;20017;-68
2024/03/15 04:35:22;;;;;;;3.40;2.38;;;14.50;99.90;;;;;;2077635;28;20029;-71
2024/03/15 04:36:27;;;;;;;3.53;2.70;;;14.50;99.90;;;;;;2075221;28;20029;-71
2024/03/15 04:37:27;;;;;;;4.68;2.75;;;14.50;99.90;;;;;;2077493;28;20477;-73
2024/03/15 04:38:28;;;;;;;4.28;2.17;;;14.50;99.90;;;;;;2076055;28;20025;-73
2024/03/15 04:39:32;;;;;;;4.22;2.90;;;14.50;99.90;;;;;;2076448;28;20509;-72
2024/03/15 04:40:33;;;;;;;3.15;2.33;;;14.60;99.90;;;;;;2076151;28;20052;-73
2024/03/15 04:41:33;;;;;;;3.35;2.33;;;14.50;99.90;;;;;;2077058;28;20449;-70
2024/03/15 04:42:34;;;;;;;6.13;2.65;;;14.50;99.90;;;;;;2074427;28;20021;-71
2024/03/15 04:43:38;;;;;;;3.03;2.10;;;14.50;99.90;;;;;;2077638;28;20025;-71
2024/03/15 04:44:39;;;;;;;2.92;2.50;;;14.50;99.90;;;;;;2075517;28;20536;-73
2024/03/15 04:45:42;;;;;;;4.10;2.42;;;14.50;99.90;;;;;;2076598;28;20447;-71
2024/03/15 04:46:43;;;;;;;5.43;2.63;;;14.50;99.90;;;;;;2076364;28;20868;-72
2024/03/15 04:47:44;;;;;;;4.20;2.42;;;14.50;99.90;;;;;;2075515;28;20137;-71
2024/03/15 04:48:44;;;;;;;5.85;2.65;;;14.50;99.90;;;;;;2076811;28;20779;-71
2024/03/15 04:49:45;;;;;;;7.57;2.50;;;14.60;99.90;;;;;;2073401;28;20044;-71
2024/03/15 04:50:45;;;;;;;4.07;2.50;;;14.50;99.90;;;;;;2076167;28;20047;-71
2024/03/15 04:51:46;;;;;;;5.90;2.70;;;14.50;99.90;;;;;;2075663;28;20084;-71
2024/03/15 04:52:50;;;;;;;5.82;2.60;;;14.50;99.90;;;;;;2077830;28;20057;-72
2024/03/15 04:53:50;;;;;;;3.65;2.67;;;14.50;99.90;;;;;;2075272;28;20148;-72
2024/03/15 04:54:51;;;;;;;7.80;2.80;;;14.50;99.90;;;;;;2075525;28;20026;-73
2024/03/15 04:55:52;;;;;;;4.57;2.58;;;14.50;99.90;;;;;;2074384;28;20033;-70
2024/03/15 04:56:53;;;;;;;4.85;2.53;;;14.50;99.90;;;;;;2076805;28;20033;-71
2024/03/15 04:57:54;;;;;;;3.88;2.75;;;14.50;99.90;;;;;;2075777;28;20482;-70
2024/03/15 04:58:56;;;;;;;3.88;2.70;;;14.50;99.90;;;;;;2077140;28;20547;-71
2024/03/15 04:59:57;;;;;;;4.40;2.35;;;14.50;99.90;;;;;;2076424;28;20025;-72
2024/03/15 05:00:57;;;;;;;4.03;2.28;;;14.50;99.90;;;;;;2075782;28;20021;-71
2024/03/15 05:01:58;;;;;;;4.60;2.58;;;14.50;99.90;;;;;;2074551;28;20026;-71
2024/03/15 05:02:59;;;;;;;5.55;3.00;;;14.50;99.90;;;;;;2078931;28;20127;-71
2024/03/15 05:04:00;;;;;;;3.50;2.55;;;14.50;99.90;;;;;;2075330;28;20085;-70
2024/03/15 05:05:00;;;;;;;4.47;3.35;;;14.50;99.90;;;;;;2078299;28;20029;-71
2024/03/15 05:06:01;;;;;;;4.53;2.72;;;14.50;99.90;;;;;;2077656;28;20038;-71
2024/03/15 05:07:02;;;;;;;6.25;3.00;;;14.50;99.90;;;;;;2078365;28;20045;-72
2024/03/15 05:08:03;;;;;;;3.90;2.35;;;14.50;99.90;;;;;;2082407;28;20961;-71
2024/03/15 05:09:09;;;;;;;5.75;2.45;;;14.50;99.90;;;;;;2077364;28;20445;-70
2024/03/15 05:10:14;;;;;;;5.43;2.88;;;14.50;99.90;;;;;;2076294;28;20029;-70
2024/03/15 05:11:15;;;;;;;7.03;2.33;;;14.50;99.90;;;;;;2077507;28;20481;-72
2024/03/15 05:12:16;;;;;;;4.88;2.58;;;14.50;99.90;;;;;;2076272;28;20428;-71
2024/03/15 05:13:16;;;;;;;4.32;2.22;;;14.50;99.90;;;;;;2076279;28;20025;-72
2024/03/15 05:14:17;;;;;;;4.30;2.45;;;14.50;99.90;;;;;;2075650;28;20033;-71
2024/03/15 05:15:17;;;;;;;5.45;2.80;;;14.50;99.90;;;;;;2076264;28;20030;-71
2024/03/15 05:16:18;;;;;;;4.47;2.72;;;14.50;99.90;;;;;;2077362;28;20044;-69
2024/03/15 05:17:18;;;;;;;3.80;2.70;;;14.50;99.90;;;;;;2078165;28;20033;-69
2024/03/15 05:18:20;;;;;;;3.78;2.70;;;14.50;99.90;;;;;;2074945;28;20486;-71
2024/03/15 05:19:20;;;;;;;3.30;2.80;;;14.50;99.90;;;;;;2074952;28;20569;-71
2024/03/15 05:20:21;;;;;;;4.22;2.50;;;14.50;99.90;;;;;;2075442;28;20554;-71